Sklinnabanken — LJQM — position and weather

sailwx.info

Track history (hours):
 
Tides and Currents Weather Stations Pressure Air Temp Water Temp Dewpoint Dewpoint Depression Visibility Wind Speed Wind Dir Waves Ship Positions

Sklinnabanken

Last reported at 2016-Jun-18 12:33 UTC. Time now 2016-Jun-28 13:26 UTC.
Position N 61°53' E 005°11'.
Warning: this ship's position is 10 days out of date.

Length 28 m; draft 6 m.

Type: Fishing. MMSI: 259648000.

Date/timePositionNaut miles runAvg speedWind from/ knotsBaromVisibWave heightAir tempDewpointWater temp
2016-Jun-18 12:33N 61°53' E 005°11'7 6.5
2016-Jun-18 11:33N 61°59' E 005°08'7 7.0
2016-Jun-18 10:33N 62°06' E 005°06'16 7.4
2016-Jun-18 08:22N 62°17' E 005°31'  
2016-Jun-16 03:09N 63°29' E 008°60'610.1
2016-Jun-16 02:33N 63°32' E 009°12'9 9.2
2016-Jun-16 01:33N 63°38' E 009°28'72 9.0
2016-Jun-15 17:33N 64°41' E 010°48'10 9.9
2016-Jun-15 16:33N 64°47' E 011°05'9 9.5
2016-Jun-15 15:33N 64°54' E 011°21'10 9.5
2016-Jun-15 14:33N 65°00' E 011°38'10 9.6
2016-Jun-15 13:33N 65°08' E 011°50'10 9.8
2016-Jun-15 12:31N 65°18' E 011°58'65 7.2
2016-Jun-15 03:32N 66°19' E 012°56'9 9.2
2016-Jun-15 02:32N 66°28' E 012°59'35 8.7
2016-Jun-14 22:31N 66°59' E 013°36'9 9.2
2016-Jun-14 21:30N 67°05' E 013°55'9 9.1
2016-Jun-14 20:33N 67°12' E 014°06'9 9.2
2016-Jun-14 19:33N 67°20' E 014°20'9 9.0
2016-Jun-14 18:33N 67°28' E 014°28'121 8.7
2016-Jun-14 04:33N 69°07' E 017°38'9 9.1
2016-Jun-14 03:33N 69°11' E 018°01'  
Track history (hours):
 
Tides and Currents Weather Stations Pressure Air Temp Water Temp Dewpoint Dewpoint Depression Visibility Wind Speed Wind Dir Waves Ship Positions

Sklinnabanken

Last reported at 2016-Jun-18 12:33 UTC. Time now 2016-Jun-28 13:26 UTC.
Position N 61°53' E 005°11'.
Warning: this ship's position is 10 days out of date.

Length 28 m; draft 6 m.

Type: Fishing. MMSI: 259648000.

Date/timePositionNaut miles runAvg speedWind from/ knotsBaromVisibWave heightAir tempDewpointWater temp
2016-Jun-18 12:33N 61°53' E 005°11'7 6.5
2016-Jun-18 11:33N 61°59' E 005°08'7 7.0
2016-Jun-18 10:33N 62°06' E 005°06'16 7.4
2016-Jun-18 08:22N 62°17' E 005°31'  
2016-Jun-16 03:09N 63°29' E 008°60'610.1
2016-Jun-16 02:33N 63°32' E 009°12'9 9.2
2016-Jun-16 01:33N 63°38' E 009°28'72 9.0
2016-Jun-15 17:33N 64°41' E 010°48'10 9.9
2016-Jun-15 16:33N 64°47' E 011°05'9 9.5
2016-Jun-15 15:33N 64°54' E 011°21'10 9.5
2016-Jun-15 14:33N 65°00' E 011°38'10 9.6
2016-Jun-15 13:33N 65°08' E 011°50'10 9.8
2016-Jun-15 12:31N 65°18' E 011°58'65 7.2
2016-Jun-15 03:32N 66°19' E 012°56'9 9.2
2016-Jun-15 02:32N 66°28' E 012°59'35 8.7
2016-Jun-14 22:31N 66°59' E 013°36'9 9.2
2016-Jun-14 21:30N 67°05' E 013°55'9 9.1
2016-Jun-14 20:33N 67°12' E 014°06'9 9.2
2016-Jun-14 19:33N 67°20' E 014°20'9 9.0
2016-Jun-14 18:33N 67°28' E 014°28'121 8.7
2016-Jun-14 04:33N 69°07' E 017°38'9 9.1
2016-Jun-14 03:33N 69°11' E 018°01'  

Dump ship's entire track history